Soaring Guidance
Issued by NWS Reno, NV

Home | Current Version | Previous Version | Text Only | Print | Product List | Glossary On
Versions: 1 2 3 4 5 6 7 8 9 10 11 12 13 14 15 16
000
UXUS97 KREV 251346
SRGREV

SOARING FORECAST
NATIONAL WEATHER SERVICE - RENO NV
700 AM PDT TUE JUL 25 2017

THIS SOARING FORECAST IS FOR THE EASTERN SIERRA AND WESTERN NEVADA
WITH SPECIFIC INDICES FOR THE GREATER RENO AREA.

THIS FORECAST IS PREPARED DAILY BY 700 AM AND IS NOT UPDATED.

FOR CURRENT FLIGHT CONDITIONS...FORECASTS...AND ADVISORIES...ACCESS
YOUR LOCAL BRIEFING OUTLET OR FLIGHT SERVICE STATION.

*******************************************************************
FORECASTED LOCAL INDICES FOR RENO:        TODAY     YESTERDAY
FORECASTED MAX TEMP AT RENO (DEG F).....     90          96
FORECASTED TRIGGER TEMPERATURE (DEG F)..     79          84
   EXCEEDED YESTERDAY BY 1055 AM PDT
FORECASTED MAXIMUM ALTITUDE (FT MSL)....  15800       17600
FORECASTED SOARING INDEX (FPM)..........    984        1218
FORECASTED K-INDEX.........VALID 18Z....     37          31
FORECASTED K-INDEX.........VALID 00Z....     34          34
FORECASTED LIFTED INDEX....VALID 18Z....     -1           0
FORECASTED LIFTED INDEX....VALID 00Z....     -2          -2

AFTERNOON WINDS ALOFT FORECAST
MSL (FT) WIND/TEMP
9000  2608/+16
10000 2307/+13
12000 2206/+07
14000 2008/+01
16000 1911/-04
18000 1920/-09
24000 1928/-21
30000 2053/-34
34000 2057/-42
39000 2159/-49

SLIDE MOUNTAIN DATA:
     DATE       TIME     TEMP  DEWPT   RH         WIND (MPH)
                        (F)   (F)           | DIR  SPEED GUST
2017-07-25    05:20      53    46     70    | 107    1    2
2017-07-25    05:00      53    46     70    | 106    0    1
2017-07-25    04:50      53    46     70    | 106    0    0
2017-07-25    04:30      54    46     67    | 105    1    3

RENO TAF FORECAST:
KRNO 251120Z 2512/2612 VRB03KT P6SM SCT100
     FM252100 29008KT P6SM VCTS BKN100CB
     FM260200 28011G19KT P6SM SCT250

CARSON CITY TAF FORECAST:
KCXP 251120Z 2512/2612 VRB03KT P6SM SCT100
     FM252100 29008KT P6SM VCTS BKN100CB
     FM260200 28011G19KT P6SM SCT250

OUTLOOK FOR THE RENO-CARSON CITY-MINDEN AREA:
.WEDNESDAY...SUNNY IN THE MORNING THEN BECOMING PARTLY CLOUDY.
HIGHS 90 TO 95. LIGHT WINDS BECOMING WEST AROUND 10 MPH IN THE
AFTERNOON.

SUNRISE AND SUNSET
JULY 25 2017..........SUNRISE   553 AM PDT   SUNSET   818 PM PDT
JULY 26 2017..........SUNRISE   554 AM PDT   SUNSET   817 PM PDT


USA.gov is the U.S. government's official web portal to all federal, state and local government web resources and services.